Time;durP1;ratioP1;P1;durP2;ratioP2;P2;SDS_P1;SDS_P2;PMS_P1;PMS_P2;Temp;Humidity;BMP_temperature;BMP_pressure;BME280_temperature;BME280_humidity;BME280_pressure;Samples;Min_cycle;Max_cycle;Signal;HPM_P1;HPM_P2
2023/06/06 00:02:12;;;;;;;1.90;1.80;;;;;;;;;;5057158;28;20276;-71
2023/06/06 00:04:38;;;;;;;2.13;1.83;;;;;;;;;;5057043;28;20213;-71
2023/06/06 00:07:08;;;;;;;1.83;1.80;;;;;;;;;;5056571;28;20213;-71
2023/06/06 00:09:34;;;;;;;1.73;1.60;;;;;;;;;;5056923;28;20378;-71
2023/06/06 00:12:04;;;;;;;2.08;1.77;;;;;;;;;;5056570;28;20215;-71
2023/06/06 00:14:31;;;;;;;1.50;1.50;;;;;;;;;;5056824;28;20564;-71
2023/06/06 00:16:58;;;;;;;1.83;1.73;;;;;;;;;;5056625;28;20210;-71
2023/06/06 00:19:25;;;;;;;1.67;1.63;;;;;;;;;;5056625;28;20220;-71
2023/06/06 00:21:52;;;;;;;1.75;1.75;;;;;;;;;;5056668;28;20347;-71
2023/06/06 00:24:18;;;;;;;2.90;1.80;;;;;;;;;;5056976;28;20314;-71
2023/06/06 00:26:44;;;;;;;1.90;1.90;;;;;;;;;;5076449;28;20279;-71
2023/06/06 00:29:10;;;;;;;1.70;1.60;;;;;;;;;;5076149;28;20208;-71
2023/06/06 00:31:37;;;;;;;1.95;1.85;;;;;;;;;;5076576;28;20216;-71
2023/06/06 00:34:03;;;;;;;1.88;1.77;;;;;;;;;;5076795;28;20241;-71
2023/06/06 00:36:31;;;;;;;1.90;1.80;;;;;;;;;;5076539;28;20250;-71
2023/06/06 00:38:57;;;;;;;2.38;1.63;;;;;;;;;;5076524;28;20243;-71
2023/06/06 00:41:23;;;;;;;1.70;1.60;;;;;;;;;;5076474;28;20529;-70
2023/06/06 00:43:49;;;;;;;2.08;1.98;;;;;;;;;;5076479;28;20231;-70
2023/06/06 00:46:16;;;;;;;4.70;1.85;;;;;;;;;;5076431;28;20265;-70
2023/06/06 00:48:42;;;;;;;3.30;1.70;;;;;;;;;;5076527;28;20357;-71
2023/06/06 00:51:09;;;;;;;1.58;1.58;;;;;;;;;;5076447;28;20437;-70
2023/06/06 00:53:37;;;;;;;1.58;1.50;;;;;;;;;;5076372;28;20250;-71
2023/06/06 00:56:03;;;;;;;3.70;1.73;;;;;;;;;;5076146;28;20254;-70
2023/06/06 00:58:30;;;;;;;2.05;1.95;;;;;;;;;;5076718;28;20605;-70
2023/06/06 01:00:57;;;;;;;2.35;2.00;;;;;;;;;;5076781;28;20246;-70
2023/06/06 01:03:24;;;;;;;2.20;2.10;;;;;;;;;;5076402;28;20555;-70
2023/06/06 01:05:53;;;;;;;2.00;1.90;;;;;;;;;;5076101;28;20209;-70
2023/06/06 01:08:19;;;;;;;1.67;1.67;;;;;;;;;;5076138;28;20227;-70
2023/06/06 01:10:47;;;;;;;1.77;1.75;;;;;;;;;;5076115;28;20262;-70
2023/06/06 01:13:18;;;;;;;2.70;1.85;;;;;;;;;;5076271;28;20232;-70
2023/06/06 01:15:47;;;;;;;2.22;2.08;;;;;;;;;;5075985;28;20546;-70
2023/06/06 01:18:14;;;;;;;1.67;1.67;;;;;;;;;;5076097;28;20212;-70
2023/06/06 01:20:41;;;;;;;1.77;1.67;;;;;;;;;;5075896;28;20213;-70
2023/06/06 01:23:09;;;;;;;2.00;2.00;;;;;;;;;;5076078;28;20352;-70
2023/06/06 01:25:37;;;;;;;2.20;2.00;;;;;;;;;;5074041;28;20545;-70
2023/06/06 01:28:04;;;;;;;1.60;1.60;;;;;;;;;;5076032;28;20604;-70
2023/06/06 01:30:32;;;;;;;1.95;1.95;;;;;;;;;;5075970;28;20254;-70
2023/06/06 01:33:04;;;;;;;1.73;1.73;;;;;;;;;;5075812;28;20212;-70
2023/06/06 01:35:50;;;;;;;2.13;2.03;;;;;;;;;;5075650;28;20216;-70
2023/06/06 01:38:20;;;;;;;1.88;1.77;;;;;;;;;;5076219;28;20465;-70
2023/06/06 01:40:48;;;;;;;1.77;1.77;;;;;;;;;;5078327;28;20555;-70
2023/06/06 01:43:16;;;;;;;2.05;1.95;;;;;;;;;;5079304;28;20220;-70
2023/06/06 01:45:43;;;;;;;1.83;1.75;;;;;;;;;;5079112;28;20236;-70
2023/06/06 01:48:10;;;;;;;2.03;1.92;;;;;;;;;;5079373;28;20246;-70
2023/06/06 01:50:36;;;;;;;2.30;2.20;;;;;;;;;;5079275;28;20208;-70
2023/06/06 01:53:02;;;;;;;2.60;2.40;;;;;;;;;;5079325;28;20212;-70
2023/06/06 01:55:30;;;;;;;2.13;2.03;;;;;;;;;;5078984;28;20209;-70
2023/06/06 01:57:57;;;;;;;2.15;2.00;;;;;;;;;;5079163;28;20573;-70
2023/06/06 02:00:23;;;;;;;2.10;2.10;;;;;;;;;;5079123;28;20208;-70
2023/06/06 02:02:49;;;;;;;2.25;2.15;;;;;;;;;;5078881;28;20520;-70
2023/06/06 02:05:15;;;;;;;2.40;2.30;;;;;;;;;;5079339;28;20239;-70
2023/06/06 02:07:42;;;;;;;2.20;2.10;;;;;;;;;;5078863;28;20471;-70
2023/06/06 02:10:09;;;;;;;2.30;2.10;;;;;;;;;;5078877;28;20215;-70
2023/06/06 02:12:37;;;;;;;2.20;2.10;;;;;;;;;;5078940;28;20414;-70
2023/06/06 02:15:05;;;;;;;2.58;2.45;;;;;;;;;;5078807;28;20208;-70
2023/06/06 02:17:31;;;;;;;2.58;2.40;;;;;;;;;;5078669;28;20243;-70
2023/06/06 02:19:57;;;;;;;1.88;1.88;;;;;;;;;;5078639;28;20452;-70
2023/06/06 02:22:24;;;;;;;2.40;2.20;;;;;;;;;;5078554;28;20208;-71
2023/06/06 02:24:52;;;;;;;2.75;2.10;;;;;;;;;;5078432;28;20436;-70
2023/06/06 02:27:19;;;;;;;2.95;2.80;;;;;;;;;;5078745;28;20406;-70
2023/06/06 02:29:46;;;;;;;2.15;2.05;;;;;;;;;;5078754;28;20302;-70
2023/06/06 02:32:13;;;;;;;1.98;1.98;;;;;;;;;;5078620;28;20257;-70
2023/06/06 02:34:39;;;;;;;2.88;2.65;;;;;;;;;;5078827;28;20246;-71
2023/06/06 02:37:06;;;;;;;2.10;2.00;;;;;;;;;;5078744;28;20499;-70
2023/06/06 02:39:33;;;;;;;2.40;2.30;;;;;;;;;;5078536;28;20208;-70
2023/06/06 02:41:59;;;;;;;2.22;2.20;;;;;;;;;;5078341;28;20200;-70
2023/06/06 02:44:27;;;;;;;2.50;2.40;;;;;;;;;;5078223;28;20270;-70
2023/06/06 02:46:54;;;;;;;2.47;2.38;;;;;;;;;;5078077;28;20254;-70
2023/06/06 02:49:20;;;;;;;2.50;2.30;;;;;;;;;;5078237;28;20249;-70
2023/06/06 02:51:47;;;;;;;2.70;2.50;;;;;;;;;;5078001;28;20230;-70
2023/06/06 02:54:13;;;;;;;2.67;2.47;;;;;;;;;;5078117;28;20244;-70
2023/06/06 02:56:39;;;;;;;2.25;2.20;;;;;;;;;;5078008;28;20208;-70
2023/06/06 02:59:07;;;;;;;2.75;2.40;;;;;;;;;;5078490;28;20277;-70
2023/06/06 03:01:33;;;;;;;2.60;2.40;;;;;;;;;;5078451;28;20208;-70
2023/06/06 03:04:01;;;;;;;2.67;2.47;;;;;;;;;;5077781;28;20439;-70
2023/06/06 03:06:28;;;;;;;3.08;2.80;;;;;;;;;;5077652;28;20450;-70
2023/06/06 03:08:57;;;;;;;2.58;2.47;;;;;;;;;;5077894;28;20204;-70
2023/06/06 03:11:25;;;;;;;2.50;2.35;;;;;;;;;;5077924;28;20200;-70
2023/06/06 03:13:51;;;;;;;2.40;2.30;;;;;;;;;;5077821;28;20204;-70
2023/06/06 03:16:17;;;;;;;2.95;2.20;;;;;;;;;;5077398;28;20208;-70
2023/06/06 03:18:46;;;;;;;2.42;2.33;;;;;;;;;;5077382;28;20571;-71
2023/06/06 03:21:15;;;;;;;3.08;2.83;;;;;;;;;;5077475;28;20216;-70
2023/06/06 03:23:41;;;;;;;4.43;2.67;;;;;;;;;;5077353;28;20248;-70
2023/06/06 03:26:07;;;;;;;2.50;2.38;;;;;;;;;;5077055;28;20212;-70
2023/06/06 03:28:34;;;;;;;2.88;2.70;;;;;;;;;;5077333;28;20266;-70
2023/06/06 03:31:00;;;;;;;2.80;2.70;;;;;;;;;;5077278;28;20261;-70
2023/06/06 03:33:26;;;;;;;3.80;3.50;;;;;;;;;;5077720;28;20208;-70
2023/06/06 03:35:52;;;;;;;3.33;3.10;;;;;;;;;;5076983;28;20213;-70
2023/06/06 03:38:20;;;;;;;3.30;3.10;;;;;;;;;;5077096;28;20634;-70
2023/06/06 03:40:46;;;;;;;3.22;3.03;;;;;;;;;;5077032;28;20570;-70
2023/06/06 03:43:12;;;;;;;3.30;3.00;;;;;;;;;;5076978;28;20212;-70
2023/06/06 03:45:38;;;;;;;3.60;3.30;;;;;;;;;;5076513;28;20228;-70
2023/06/06 03:48:05;;;;;;;4.55;3.20;;;;;;;;;;5076860;28;20208;-70
2023/06/06 03:50:31;;;;;;;2.45;2.25;;;;;;;;;;5077119;28;20520;-70
2023/06/06 03:52:58;;;;;;;3.00;2.80;;;;;;;;;;5077039;28;20209;-70
2023/06/06 03:55:25;;;;;;;3.15;2.47;;;;;;;;;;5077284;28;20205;-70
2023/06/06 03:57:52;;;;;;;2.97;2.83;;;;;;;;;;5077398;28;20445;-70
2023/06/06 04:00:19;;;;;;;3.13;2.92;;;;;;;;;;5077039;28;20216;-70
2023/06/06 04:02:46;;;;;;;2.45;2.35;;;;;;;;;;5076158;28;20212;-70
2023/06/06 04:05:12;;;;;;;3.08;2.88;;;;;;;;;;5076526;28;20235;-67
2023/06/06 04:07:39;;;;;;;3.15;2.95;;;;;;;;;;5076694;28;20337;-67
2023/06/06 04:10:05;;;;;;;3.00;2.90;;;;;;;;;;5076593;28;20208;-67
2023/06/06 04:12:33;;;;;;;3.10;2.90;;;;;;;;;;5076468;28;20212;-67
2023/06/06 04:14:59;;;;;;;2.72;2.53;;;;;;;;;;5076387;28;20204;-67
2023/06/06 04:17:26;;;;;;;2.53;2.40;;;;;;;;;;5076515;28;20253;-67
2023/06/06 04:19:52;;;;;;;2.75;2.53;;;;;;;;;;5076645;28;20230;-67
2023/06/06 04:22:19;;;;;;;2.67;2.58;;;;;;;;;;5076833;28;20212;-67
2023/06/06 04:24:46;;;;;;;3.53;3.20;;;;;;;;;;5072142;28;20228;-67
2023/06/06 04:27:12;;;;;;;4.32;2.78;;;;;;;;;;5056593;28;20263;-67
2023/06/06 04:29:41;;;;;;;3.15;3.00;;;;;;;;;;5056359;28;20267;-67
2023/06/06 04:32:08;;;;;;;2.83;2.63;;;;;;;;;;5056465;28;20576;-67
2023/06/06 04:34:35;;;;;;;3.00;2.78;;;;;;;;;;5056366;28;20536;-67
2023/06/06 04:37:03;;;;;;;2.95;2.75;;;;;;;;;;5056433;28;20251;-67
2023/06/06 04:39:30;;;;;;;3.88;3.58;;;;;;;;;;5056367;28;20214;-67
2023/06/06 04:41:57;;;;;;;3.75;3.40;;;;;;;;;;5056311;28;20450;-67
2023/06/06 04:44:24;;;;;;;3.67;3.38;;;;;;;;;;5056341;28;20224;-67
2023/06/06 04:46:52;;;;;;;3.63;3.42;;;;;;;;;;5055992;28;20381;-67
2023/06/06 04:49:19;;;;;;;3.13;3.03;;;;;;;;;;5056391;28;20213;-67
2023/06/06 04:51:45;;;;;;;4.53;3.42;;;;;;;;;;5056488;28;20568;-67
2023/06/06 04:54:12;;;;;;;3.50;3.20;;;;;;;;;;5056647;28;20212;-67
2023/06/06 04:56:40;;;;;;;4.10;3.80;;;;;;;;;;5056367;28;20218;-67
2023/06/06 04:59:06;;;;;;;3.85;3.65;;;;;;;;;;5056044;28;20404;-67
2023/06/06 05:01:34;;;;;;;4.85;3.67;;;;;;;;;;5056005;28;20240;-67
2023/06/06 05:04:01;;;;;;;4.18;3.92;;;;;;;;;;5055955;28;20443;-67
2023/06/06 05:06:28;;;;;;;4.82;3.97;;;;;;;;;;5055711;28;20209;-67
2023/06/06 05:08:55;;;;;;;4.22;3.92;;;;;;;;;;5055934;28;20410;-67
2023/06/06 05:11:21;;;;;;;6.75;4.40;;;;;;;;;;5055893;28;20279;-67
2023/06/06 05:13:47;;;;;;;5.28;4.93;;;;;;;;;;5056616;28;20209;-67
2023/06/06 05:16:14;;;;;;;4.72;4.47;;;;;;;;;;5059637;28;20208;-67
2023/06/06 05:18:40;;;;;;;5.38;4.88;;;;;;;;;;5059793;28;20229;-67
2023/06/06 05:21:08;;;;;;;6.63;6.03;;;;;;;;;;5060061;28;20209;-67
2023/06/06 05:23:34;;;;;;;9.35;6.13;;;;;;;;;;5059963;28;20563;-67
2023/06/06 05:26:01;;;;;;;4.72;4.53;;;;;;;;;;5074198;28;20291;-67
2023/06/06 05:28:28;;;;;;;6.10;5.22;;;;;;;;;;5079538;28;20228;-67
2023/06/06 05:30:56;;;;;;;5.88;5.30;;;;;;;;;;5079646;28;20208;-67
2023/06/06 05:33:22;;;;;;;5.55;4.82;;;;;;;;;;5079470;28;20232;-67
2023/06/06 05:35:49;;;;;;;5.18;4.68;;;;;;;;;;5079288;28;20208;-67
2023/06/06 05:38:16;;;;;;;4.72;4.32;;;;;;;;;;5079264;28;20276;-67
2023/06/06 05:40:43;;;;;;;4.70;4.32;;;;;;;;;;5079418;28;20208;-67
2023/06/06 05:43:09;;;;;;;5.55;4.57;;;;;;;;;;5079363;28;20208;-67
2023/06/06 05:45:35;;;;;;;4.93;3.97;;;;;;;;;;5079204;28;20227;-67
2023/06/06 05:48:02;;;;;;;4.38;3.65;;;;;;;;;;5079733;28;20208;-67
2023/06/06 05:50:28;;;;;;;4.97;3.38;;;;;;;;;;5079655;28;20215;-67
2023/06/06 05:52:55;;;;;;;7.15;3.50;;;;;;;;;;5079248;28;20216;-67
2023/06/06 05:55:29;;;;;;;4.05;3.75;;;;;;;;;;5078946;28;20212;-67
2023/06/06 05:57:56;;;;;;;4.70;3.65;;;;;;;;;;5079520;28;20249;-67
2023/06/06 06:00:22;;;;;;;3.65;3.25;;;;;;;;;;5079137;28;20208;-67
2023/06/06 06:02:51;;;;;;;7.05;4.13;;;;;;;;;;5079165;28;20334;-67
2023/06/06 06:05:17;;;;;;;3.75;3.28;;;;;;;;;;5078814;28;20251;-57
2023/06/06 06:07:44;;;;;;;4.13;3.80;;;;;;;;;;5078931;28;20261;-57
2023/06/06 06:10:11;;;;;;;5.63;3.75;;;;;;;;;;5078832;28;20270;-58
2023/06/06 06:12:38;;;;;;;11.00;4.00;;;;;;;;;;5077851;28;20216;-56
2023/06/06 06:15:05;;;;;;;4.82;3.72;;;;;;;;;;5078484;28;20487;-57
2023/06/06 06:17:31;;;;;;;12.95;4.00;;;;;;;;;;5079028;28;20200;-59
2023/06/06 06:20:00;;;;;;;3.72;3.15;;;;;;;;;;5078574;28;20248;-59
2023/06/06 06:22:26;;;;;;;5.70;3.55;;;;;;;;;;5075493;28;20208;-58
2023/06/06 06:24:52;;;;;;;8.00;3.63;;;;;;;;;;5074934;28;20535;-58
2023/06/06 06:27:18;;;;;;;5.72;3.60;;;;;;;;;;5074833;28;20232;-58
2023/06/06 06:29:46;;;;;;;10.10;3.80;;;;;;;;;;5076195;28;20212;-58
2023/06/06 06:32:12;;;;;;;3.53;3.20;;;;;;;;;;5073323;28;20513;-57
2023/06/06 06:34:39;;;;;;;4.60;3.45;;;;;;;;;;5077792;28;20539;-58
2023/06/06 06:37:07;;;;;;;3.78;3.50;;;;;;;;;;5076307;28;20212;-57
2023/06/06 06:39:33;;;;;;;4.60;3.70;;;;;;;;;;5076448;28;20544;-57
2023/06/06 06:41:59;;;;;;;5.70;3.63;;;;;;;;;;5076178;28;20216;-58
2023/06/06 06:44:25;;;;;;;7.60;3.20;;;;;;;;;;5076771;28;20221;-58
2023/06/06 06:46:53;;;;;;;3.22;2.97;;;;;;;;;;5076066;28;20270;-58
2023/06/06 06:49:20;;;;;;;4.90;3.30;;;;;;;;;;5076590;28;20386;-58
2023/06/06 06:51:47;;;;;;;3.90;3.53;;;;;;;;;;5077144;28;20524;-58
2023/06/06 06:54:15;;;;;;;3.65;3.22;;;;;;;;;;5076280;28;20208;-58
2023/06/06 06:56:42;;;;;;;7.97;3.30;;;;;;;;;;5076549;28;20520;-57
2023/06/06 06:59:08;;;;;;;3.67;3.40;;;;;;;;;;5076260;28;20204;-57
2023/06/06 07:01:37;;;;;;;8.30;3.50;;;;;;;;;;5076238;28;20213;-57
2023/06/06 07:04:05;;;;;;;6.00;3.10;;;;;;;;;;5075922;28;20250;-56
2023/06/06 07:06:33;;;;;;;3.30;3.10;;;;;;;;;;5075491;28;20228;-57
2023/06/06 07:09:00;;;;;;;5.07;3.40;;;;;;;;;;5076170;28;20383;-56
2023/06/06 07:11:26;;;;;;;3.33;3.13;;;;;;;;;;5075490;28;20526;-56
2023/06/06 07:13:53;;;;;;;3.97;3.20;;;;;;;;;;5075666;28;20578;-56
2023/06/06 07:16:22;;;;;;;3.95;3.33;;;;;;;;;;5075855;28;20208;-56
2023/06/06 07:18:50;;;;;;;4.30;2.92;;;;;;;;;;5075844;28;20212;-57
2023/06/06 07:21:17;;;;;;;9.15;2.90;;;;;;;;;;5075391;28;20585;-57
2023/06/06 07:23:43;;;;;;;3.50;3.20;;;;;;;;;;5075717;28;20216;-56
2023/06/06 07:26:10;;;;;;;3.53;2.95;;;;;;;;;;5075641;28;20294;-55
2023/06/06 07:28:37;;;;;;;5.47;3.10;;;;;;;;;;5076227;28;20516;-56
2023/06/06 07:31:03;;;;;;;5.50;3.33;;;;;;;;;;5075333;28;20508;-57
2023/06/06 07:33:30;;;;;;;3.47;3.17;;;;;;;;;;5075678;28;20213;-57
2023/06/06 07:35:56;;;;;;;7.93;3.20;;;;;;;;;;5075665;28;20223;-55
2023/06/06 07:38:25;;;;;;;5.75;2.95;;;;;;;;;;5075151;28;20212;-58
2023/06/06 07:40:51;;;;;;;3.55;3.15;;;;;;;;;;5075669;28;20412;-58
2023/06/06 07:43:17;;;;;;;3.97;3.28;;;;;;;;;;5075845;28;20516;-58
2023/06/06 07:45:44;;;;;;;5.13;3.33;;;;;;;;;;5075553;28;20597;-56
2023/06/06 07:48:10;;;;;;;4.38;3.08;;;;;;;;;;5075615;28;20515;-57
2023/06/06 07:50:36;;;;;;;3.50;3.20;;;;;;;;;;5076224;28;20508;-56
2023/06/06 07:53:03;;;;;;;17.83;13.35;;;;;;;;;;5076117;28;20208;-55
2023/06/06 07:55:31;;;;;;;5.50;5.00;;;;;;;;;;5075793;28;20442;-57
2023/06/06 07:57:58;;;;;;;5.05;3.30;;;;;;;;;;5076146;28;20539;-57
2023/06/06 08:00:24;;;;;;;3.60;3.38;;;;;;;;;;5075844;28;20577;-57
2023/06/06 08:02:50;;;;;;;4.45;3.03;;;;;;;;;;5075834;28;20569;-57
2023/06/06 08:05:18;;;;;;;2.72;2.53;;;;;;;;;;5075115;28;20251;-57
2023/06/06 08:07:44;;;;;;;3.83;2.65;;;;;;;;;;5075465;28;20261;-56
2023/06/06 08:10:11;;;;;;;2.67;2.47;;;;;;;;;;5075049;28;20487;-57
2023/06/06 08:12:39;;;;;;;2.28;2.17;;;;;;;;;;5075464;28;20216;-57
2023/06/06 08:15:06;;;;;;;2.50;2.40;;;;;;;;;;5075050;28;20209;-57
2023/06/06 08:17:32;;;;;;;3.58;2.53;;;;;;;;;;5075534;28;20219;-57
2023/06/06 08:19:58;;;;;;;2.50;2.40;;;;;;;;;;5067717;28;20254;-57
2023/06/06 08:22:27;;;;;;;4.10;2.60;;;;;;;;;;5075319;28;20527;-56
2023/06/06 08:24:54;;;;;;;2.90;2.63;;;;;;;;;;5074810;28;20485;-58
2023/06/06 08:27:20;;;;;;;2.80;2.60;;;;;;;;;;5075003;28;20236;-57
2023/06/06 08:29:47;;;;;;;3.15;2.90;;;;;;;;;;5075272;28;20212;-57
2023/06/06 08:32:14;;;;;;;3.10;2.90;;;;;;;;;;5075560;28;20216;-57
2023/06/06 08:34:41;;;;;;;3.42;2.70;;;;;;;;;;5075284;28;20213;-57
2023/06/06 08:37:07;;;;;;;3.00;2.78;;;;;;;;;;5075252;28;20516;-58
2023/06/06 08:39:33;;;;;;;5.68;2.58;;;;;;;;;;5074930;28;20219;-58
2023/06/06 08:42:00;;;;;;;3.33;2.80;;;;;;;;;;5074891;28;20222;-58
2023/06/06 08:44:26;;;;;;;3.80;2.75;;;;;;;;;;5075600;28;20213;-59
2023/06/06 08:46:57;;;;;;;4.10;2.92;;;;;;;;;;5075648;28;20273;-59
2023/06/06 08:49:24;;;;;;;3.38;2.60;;;;;;;;;;5077194;28;20216;-59
2023/06/06 08:51:52;;;;;;;3.72;3.03;;;;;;;;;;5079752;28;20575;-56
2023/06/06 08:54:18;;;;;;;3.28;2.92;;;;;;;;;;5078985;28;20222;-55
2023/06/06 08:56:44;;;;;;;2.90;2.70;;;;;;;;;;5079089;28;20401;-57
2023/06/06 08:59:11;;;;;;;3.38;3.08;;;;;;;;;;5078945;28;20255;-57
2023/06/06 09:01:38;;;;;;;3.13;2.92;;;;;;;;;;5078825;28;20227;-58
2023/06/06 09:04:06;;;;;;;5.43;3.08;;;;;;;;;;5078832;28;20212;-57
2023/06/06 09:06:34;;;;;;;2.95;2.75;;;;;;;;;;5078623;28;20230;-57
2023/06/06 09:09:01;;;;;;;3.03;2.90;;;;;;;;;;5078584;28;20213;-56
2023/06/06 09:11:27;;;;;;;5.47;3.17;;;;;;;;;;5078529;28;20216;-56
2023/06/06 09:13:53;;;;;;;2.92;2.72;;;;;;;;;;5079352;28;20561;-57
2023/06/06 09:16:19;;;;;;;6.07;3.47;;;;;;;;;;5078181;28;20527;-56
2023/06/06 09:18:49;;;;;;;3.03;2.83;;;;;;;;;;5079602;28;20208;-56
2023/06/06 09:21:17;;;;;;;3.47;2.90;;;;;;;;;;5076773;28;20211;-56
2023/06/06 09:23:43;;;;;;;2.72;2.63;;;;;;;;;;5078040;28;20212;-57
2023/06/06 09:26:18;;;;;;;3.25;3.05;;;;;;;;;;5077656;28;20236;-57
2023/06/06 09:28:44;;;;;;;2.58;2.47;;;;;;;;;;5067730;28;20227;-56
2023/06/06 09:31:21;;;;;;;3.00;2.90;;;;;;;;;;5077689;28;20247;-57
2023/06/06 09:33:48;;;;;;;2.72;2.60;;;;;;;;;;5077677;28;20262;-57
2023/06/06 09:36:14;;;;;;;3.35;3.08;;;;;;;;;;5062983;28;20208;-57
2023/06/06 09:38:42;;;;;;;2.85;2.75;;;;;;;;;;5078595;28;20208;-57
2023/06/06 09:41:08;;;;;;;2.90;2.70;;;;;;;;;;5078018;28;20686;-57
2023/06/06 09:43:37;;;;;;;4.65;2.72;;;;;;;;;;5077613;28;20216;-57
2023/06/06 09:46:05;;;;;;;2.95;2.78;;;;;;;;;;5077232;28;20239;-58
2023/06/06 09:48:32;;;;;;;4.65;2.88;;;;;;;;;;5077778;28;20248;-57
2023/06/06 09:50:58;;;;;;;3.25;3.10;;;;;;;;;;5076978;28;20447;-57
2023/06/06 09:53:24;;;;;;;2.92;2.72;;;;;;;;;;5077823;28;20243;-59
2023/06/06 09:55:52;;;;;;;3.20;2.90;;;;;;;;;;5077560;28;20531;-59
2023/06/06 09:58:21;;;;;;;4.47;3.20;;;;;;;;;;5077463;28;20524;-59
2023/06/06 10:00:47;;;;;;;3.75;2.80;;;;;;;;;;5076422;28;20219;-60
2023/06/06 10:03:18;;;;;;;3.20;3.00;;;;;;;;;;5077497;28;20212;-59
2023/06/06 10:05:45;;;;;;;3.67;3.10;;;;;;;;;;5077517;28;20223;-59
2023/06/06 10:08:11;;;;;;;3.55;3.28;;;;;;;;;;5077103;28;20549;-59
2023/06/06 10:10:38;;;;;;;4.75;3.03;;;;;;;;;;5077349;28;20218;-59
2023/06/06 10:13:06;;;;;;;4.53;2.72;;;;;;;;;;5077171;28;20223;-59
2023/06/06 10:15:32;;;;;;;3.72;3.08;;;;;;;;;;5076950;28;21078;-59
2023/06/06 10:17:59;;;;;;;3.58;3.30;;;;;;;;;;5077697;28;20730;-59
2023/06/06 10:20:26;;;;;;;3.53;3.30;;;;;;;;;;5077134;28;20257;-60
2023/06/06 10:22:53;;;;;;;6.32;3.35;;;;;;;;;;5076570;28;20345;-59
2023/06/06 10:25:19;;;;;;;4.75;2.95;;;;;;;;;;5077477;28;20291;-59
2023/06/06 10:27:48;;;;;;;3.28;3.03;;;;;;;;;;5076559;28;20285;-59
2023/06/06 10:30:22;;;;;;;3.97;3.55;;;;;;;;;;5077451;28;20215;-59
2023/06/06 10:32:51;;;;;;;3.00;2.80;;;;;;;;;;5076772;28;20531;-59
2023/06/06 10:35:18;;;;;;;3.38;3.10;;;;;;;;;;5076190;28;20516;-59
2023/06/06 10:38:00;;;;;;;4.10;2.80;;;;;;;;;;5077169;28;20215;-59
2023/06/06 10:40:27;;;;;;;6.97;3.13;;;;;;;;;;5077416;28;20250;-60
2023/06/06 10:42:54;;;;;;;3.40;2.80;;;;;;;;;;5077118;28;20220;-59
2023/06/06 10:45:39;;;;;;;3.08;2.88;;;;;;;;;;5076883;28;20215;-57
2023/06/06 10:48:05;;;;;;;3.22;3.00;;;;;;;;;;5076861;28;20208;-57
2023/06/06 10:50:32;;;;;;;3.92;3.10;;;;;;;;;;5077130;28;20211;-56
2023/06/06 10:53:01;;;;;;;3.55;3.25;;;;;;;;;;5077232;28;20278;-57
2023/06/06 10:55:43;;;;;;;6.25;3.00;;;;;;;;;;5077271;28;20212;-57
2023/06/06 10:58:11;;;;;;;2.95;2.80;;;;;;;;;;5076800;28;20275;-57
2023/06/06 11:00:42;;;;;;;3.20;3.00;;;;;;;;;;5076661;28;20245;-57
2023/06/06 11:03:09;;;;;;;5.85;2.97;;;;;;;;;;5076150;28;20480;-58
2023/06/06 11:06:01;;;;;;;3.13;3.03;;;;;;;;;;5076121;28;20212;-58
2023/06/06 11:08:31;;;;;;;4.80;3.08;;;;;;;;;;5075322;28;20246;-57
2023/06/06 11:11:13;;;;;;;3.97;3.03;;;;;;;;;;5076246;28;20238;-57
2023/06/06 11:13:48;;;;;;;3.58;3.20;;;;;;;;;;5075097;28;20261;-58
2023/06/06 11:16:16;;;;;;;3.60;3.33;;;;;;;;;;5075498;28;20203;-58
2023/06/06 11:18:44;;;;;;;4.03;3.30;;;;;;;;;;5075402;28;20208;-58
2023/06/06 11:21:11;;;;;;;2.92;2.70;;;;;;;;;;5075773;28;20273;-56
2023/06/06 11:23:38;;;;;;;4.22;3.20;;;;;;;;;;5075737;28;20219;-58
2023/06/06 11:26:05;;;;;;;3.28;3.05;;;;;;;;;;5070815;28;20436;-56
2023/06/06 11:28:31;;;;;;;4.90;3.20;;;;;;;;;;5076356;28;20289;-58
2023/06/06 11:30:58;;;;;;;8.05;3.03;;;;;;;;;;5076493;28;20212;-58
2023/06/06 11:33:26;;;;;;;3.72;3.22;;;;;;;;;;5075936;28;20272;-58
2023/06/06 11:35:54;;;;;;;4.03;2.63;;;;;;;;;;5076060;28;20212;-57
2023/06/06 11:38:20;;;;;;;3.25;3.05;;;;;;;;;;5076624;28;20264;-58
2023/06/06 11:40:46;;;;;;;3.92;2.55;;;;;;;;;;5075933;28;20218;-57
2023/06/06 11:43:13;;;;;;;3.00;2.72;;;;;;;;;;5075827;28;20458;-56
2023/06/06 11:45:39;;;;;;;3.05;2.85;;;;;;;;;;5075871;28;20211;-57
2023/06/06 11:48:20;;;;;;;4.00;2.80;;;;;;;;;;5075721;28;20608;-56
2023/06/06 11:50:49;;;;;;;4.93;3.13;;;;;;;;;;5076388;28;20570;-58
2023/06/06 11:53:28;;;;;;;3.15;2.80;;;;;;;;;;5075648;28;20216;-58
2023/06/06 11:55:54;;;;;;;4.32;2.50;;;;;;;;;;5075314;28;20211;-58
2023/06/06 11:58:20;;;;;;;4.72;2.65;;;;;;;;;;5075551;28;20531;-58
2023/06/06 12:00:47;;;;;;;2.97;2.75;;;;;;;;;;5075609;28;20426;-58
2023/06/06 12:03:14;;;;;;;3.15;2.50;;;;;;;;;;5075394;28;20559;-58
2023/06/06 12:05:41;;;;;;;5.00;2.60;;;;;;;;;;5074796;28;20207;-58
2023/06/06 12:08:09;;;;;;;3.03;2.80;;;;;;;;;;5074840;28;20650;-57
2023/06/06 12:10:35;;;;;;;2.72;2.53;;;;;;;;;;5075800;28;20216;-58
2023/06/06 12:13:01;;;;;;;2.85;2.67;;;;;;;;;;5074862;28;20211;-58
2023/06/06 12:15:42;;;;;;;4.43;2.72;;;;;;;;;;5075426;28;20219;-58
2023/06/06 12:18:09;;;;;;;4.43;2.75;;;;;;;;;;5070064;28;20543;-58
2023/06/06 12:20:35;;;;;;;3.28;3.05;;;;;;;;;;5075029;28;20253;-58
2023/06/06 12:23:01;;;;;;;2.67;2.50;;;;;;;;;;5075011;28;20220;-58
2023/06/06 12:25:29;;;;;;;4.18;2.60;;;;;;;;;;5074710;28;20196;-58
2023/06/06 12:27:55;;;;;;;3.20;2.70;;;;;;;;;;5074865;28;20236;-57
2023/06/06 12:30:31;;;;;;;3.58;2.83;;;;;;;;;;5075553;28;20265;-58
2023/06/06 12:32:58;;;;;;;3.80;2.95;;;;;;;;;;5074664;28;20587;-58
2023/06/06 12:35:24;;;;;;;6.53;3.45;;;;;;;;;;5074684;28;20234;-58
2023/06/06 12:37:51;;;;;;;7.00;2.80;;;;;;;;;;5075105;28;20537;-57
2023/06/06 12:40:18;;;;;;;5.95;3.28;;;;;;;;;;5075210;28;20243;-56
2023/06/06 12:42:52;;;;;;;6.43;3.20;;;;;;;;;;5074754;28;20212;-58
2023/06/06 12:45:18;;;;;;;5.50;3.00;;;;;;;;;;5074481;28;20211;-58
2023/06/06 12:47:44;;;;;;;5.95;2.80;;;;;;;;;;5074480;28;20228;-57
2023/06/06 12:50:11;;;;;;;3.13;2.92;;;;;;;;;;5074139;28;20527;-57
2023/06/06 12:52:38;;;;;;;2.60;2.50;;;;;;;;;;5074368;28;20223;-57
2023/06/06 12:55:05;;;;;;;3.67;3.00;;;;;;;;;;5075056;28;20211;-58
2023/06/06 12:57:31;;;;;;;4.70;2.60;;;;;;;;;;5074249;28;20199;-56
2023/06/06 12:59:59;;;;;;;2.58;2.30;;;;;;;;;;5074982;28;20216;-57
2023/06/06 13:02:25;;;;;;;4.30;2.60;;;;;;;;;;5074439;28;20215;-57
2023/06/06 13:04:52;;;;;;;3.67;3.03;;;;;;;;;;5074287;28;20423;-57
2023/06/06 13:07:18;;;;;;;6.22;2.50;;;;;;;;;;5074594;28;20228;-57
2023/06/06 13:09:44;;;;;;;3.60;2.90;;;;;;;;;;5074243;28;20559;-57
2023/06/06 13:12:11;;;;;;;4.10;2.75;;;;;;;;;;5074318;28;20566;-58
2023/06/06 13:14:38;;;;;;;2.30;2.20;;;;;;;;;;5073990;28;20386;-58
2023/06/06 13:17:06;;;;;;;5.82;2.50;;;;;;;;;;5074069;28;20211;-58
2023/06/06 13:19:32;;;;;;;2.80;2.60;;;;;;;;;;5074759;28;20283;-58
2023/06/06 13:21:59;;;;;;;3.00;2.72;;;;;;;;;;5074605;28;20266;-58
2023/06/06 13:24:25;;;;;;;6.38;2.67;;;;;;;;;;5074728;28;20212;-58
2023/06/06 13:26:51;;;;;;;2.83;2.53;;;;;;;;;;5073966;28;20504;-55
2023/06/06 13:29:18;;;;;;;3.72;2.90;;;;;;;;;;5074800;28;20211;-58
2023/06/06 13:31:44;;;;;;;4.22;2.38;;;;;;;;;;5074510;28;20262;-58
2023/06/06 13:34:12;;;;;;;3.05;2.75;;;;;;;;;;5074369;28;20218;-55
2023/06/06 13:36:38;;;;;;;3.00;2.67;;;;;;;;;;5077319;28;20216;-57
2023/06/06 13:39:05;;;;;;;3.10;2.70;;;;;;;;;;5077386;28;20253;-57
2023/06/06 13:41:31;;;;;;;3.72;3.42;;;;;;;;;;5077312;28;20518;-57
2023/06/06 13:43:59;;;;;;;3.47;3.17;;;;;;;;;;5077640;28;20216;-58
2023/06/06 13:46:25;;;;;;;5.50;2.67;;;;;;;;;;5077253;28;20419;-55
2023/06/06 13:48:53;;;;;;;3.08;2.88;;;;;;;;;;5078401;28;20461;-56
2023/06/06 13:51:21;;;;;;;4.97;2.58;;;;;;;;;;5077726;28;20212;-56
2023/06/06 13:53:47;;;;;;;5.07;2.80;;;;;;;;;;5077857;28;20542;-57
2023/06/06 13:56:15;;;;;;;5.60;2.65;;;;;;;;;;5077844;28;20227;-57
2023/06/06 13:58:49;;;;;;;3.20;2.70;;;;;;;;;;5077041;28;20227;-56
2023/06/06 14:01:15;;;;;;;2.78;2.58;;;;;;;;;;5073841;28;20278;-57
2023/06/06 14:03:42;;;;;;;3.47;2.80;;;;;;;;;;5078111;28;21145;-59
2023/06/06 14:06:08;;;;;;;3.40;2.20;;;;;;;;;;5076824;28;20212;-57
2023/06/06 14:08:35;;;;;;;3.35;2.20;;;;;;;;;;5077368;28;20563;-56
2023/06/06 14:11:02;;;;;;;2.70;2.08;;;;;;;;;;5077760;28;20276;-56
2023/06/06 14:13:29;;;;;;;6.05;2.67;;;;;;;;;;5077549;28;20269;-56
2023/06/06 14:15:55;;;;;;;3.60;2.13;;;;;;;;;;5077139;28;20257;-57
2023/06/06 14:18:21;;;;;;;4.78;2.30;;;;;;;;;;5077202;28;20204;-57
2023/06/06 14:20:59;;;;;;;2.65;2.22;;;;;;;;;;5078733;28;20211;-57
2023/06/06 14:23:26;;;;;;;2.60;2.40;;;;;;;;;;5078788;28;20511;-57
2023/06/06 14:25:53;;;;;;;3.08;2.47;;;;;;;;;;5078669;28;20233;-57
2023/06/06 14:28:19;;;;;;;2.60;2.45;;;;;;;;;;5083299;28;20224;-57
2023/06/06 14:30:46;;;;;;;2.78;2.58;;;;;;;;;;5083930;28;20202;-57
2023/06/06 14:33:12;;;;;;;3.15;2.35;;;;;;;;;;5083966;28;20219;-57
2023/06/06 14:35:38;;;;;;;2.72;2.53;;;;;;;;;;5083512;28;20203;-57
2023/06/06 14:38:05;;;;;;;4.47;2.38;;;;;;;;;;5083966;28;20196;-57
2023/06/06 14:40:31;;;;;;;2.17;2.08;;;;;;;;;;5083668;28;20218;-55
2023/06/06 14:42:59;;;;;;;2.38;2.28;;;;;;;;;;5083523;28;20241;-69
2023/06/06 14:45:25;;;;;;;2.13;1.98;;;;;;;;;;5083220;28;20193;-70